Time,TemperatureF,DewpointF,PressureIn,WindDirection,WindDirectionDegrees,WindSpeedMPH,WindSpeedGustMPH,Humidity,HourlyPrecipIn,Conditions,Clouds,dailyrainin,SoftwareType,DateUTC
2013-01-09 00:05:00,42.6,34.0,29.87,SSW,192,0.0,1.0,71,0.00,,,0.00,weatherlink.com 1.10,2013-01-09 07:05:00,
2013-01-09 00:20:00,43.0,34.0,29.87,ESE,120,2.0,4.0,70,0.00,,,0.00,weatherlink.com 1.10,2013-01-09 07:20:00,
2013-01-09 00:35:00,43.3,33.0,29.87,SE,131,0.0,6.0,68,0.00,,,0.00,weatherlink.com 1.10,2013-01-09 07:35:00,
2013-01-09 00:50:00,43.8,33.0,29.87,ESE,107,3.0,7.0,66,0.00,,,0.00,weatherlink.com 1.10,2013-01-09 07:50:00,
2013-01-09 01:05:00,43.8,33.0,29.86,South,169,7.0,9.0,65,0.00,,,0.00,weatherlink.com 1.10,2013-01-09 08:05:00,
2013-01-09 01:20:00,43.9,32.0,29.86,South,173,4.0,11.0,64,0.00,,,0.00,weatherlink.com 1.10,2013-01-09 08:20:00,
2013-01-09 01:35:00,43.3,32.0,29.86,South,176,0.0,8.0,65,0.00,,,0.00,weatherlink.com 1.10,2013-01-09 08:35:00,
2013-01-09 01:50:00,43.1,32.0,29.86,SSE,153,0.0,9.0,65,0.00,,,0.00,weatherlink.com 1.10,2013-01-09 08:50:00,
2013-01-09 02:05:00,44.1,32.0,29.86,ESE,122,5.0,9.0,62,0.00,,,0.00,weatherlink.com 1.10,2013-01-09 09:05:00,
2013-01-09 02:20:00,44.2,31.0,29.86,SSE,153,7.0,13.0,61,0.00,,,0.00,weatherlink.com 1.10,2013-01-09 09:20:00,
2013-01-09 02:35:00,44.4,31.0,29.85,SE,135,14.0,16.0,60,0.00,,,0.00,weatherlink.com 1.10,2013-01-09 09:35:00,
2013-01-09 02:50:00,44.4,31.0,29.86,SSE,159,7.0,16.0,60,0.00,,,0.00,weatherlink.com 1.10,2013-01-09 09:50:00,
2013-01-09 03:05:00,44.2,31.0,29.87,South,186,5.0,8.0,61,0.00,,,0.00,weatherlink.com 1.10,2013-01-09 10:05:00,
2013-01-09 03:20:00,44.1,31.0,29.86,SE,143,8.0,15.0,61,0.00,,,0.00,weatherlink.com 1.10,2013-01-09 10:20:00,
2013-01-09 03:35:00,44.1,31.0,29.86,South,175,6.0,17.0,60,0.00,,,0.00,weatherlink.com 1.10,2013-01-09 10:35:00,
2013-01-09 03:50:00,44.2,31.0,29.86,SSE,148,9.0,11.0,60,0.00,,,0.00,weatherlink.com 1.10,2013-01-09 10:50:00,
2013-01-09 04:05:00,43.6,31.0,29.86,SSE,162,9.0,12.0,61,0.00,,,0.00,weatherlink.com 1.10,2013-01-09 11:05:00,
2013-01-09 04:20:00,44.0,31.0,29.87,SE,139,7.0,11.0,60,0.00,,,0.00,weatherlink.com 1.10,2013-01-09 11:20:00,
2013-01-09 04:35:00,44.8,31.0,29.87,SE,141,12.0,14.0,58,0.00,,,0.00,weatherlink.com 1.10,2013-01-09 11:35:00,
2013-01-09 04:50:00,44.9,30.0,29.86,SE,146,6.0,17.0,57,0.00,,,0.00,weatherlink.com 1.10,2013-01-09 11:50:00,
2013-01-09 05:05:00,44.9,31.0,29.86,NW,304,3.0,13.0,58,0.00,,,0.00,weatherlink.com 1.10,2013-01-09 12:05:00,
2013-01-09 05:20:00,44.1,30.0,29.86,NNE,19,5.0,6.0,58,0.00,,,0.00,weatherlink.com 1.10,2013-01-09 12:20:00,
2013-01-09 05:35:00,44.7,31.0,29.86,East,82,3.0,6.0,58,0.00,,,0.00,weatherlink.com 1.10,2013-01-09 12:35:00,
2013-01-09 05:50:00,44.5,30.0,29.87,ENE,59,5.0,7.0,58,0.00,,,0.00,weatherlink.com 1.10,2013-01-09 12:50:00,
2013-01-09 06:05:00,43.0,32.0,29.86,NE,41,6.0,7.0,66,0.00,,,0.00,weatherlink.com 1.10,2013-01-09 13:05:00,
2013-01-09 06:20:00,43.9,31.0,29.86,SE,136,12.0,12.0,61,0.00,,,0.00,weatherlink.com 1.10,2013-01-09 13:20:00,
2013-01-09 06:35:00,43.3,32.0,29.86,ESE,120,9.0,10.0,65,0.00,,,0.00,weatherlink.com 1.10,2013-01-09 13:35:00,
2013-01-09 06:50:00,43.4,33.0,29.86,ESE,116,10.0,10.0,68,0.00,,,0.00,weatherlink.com 1.10,2013-01-09 13:50:00,
2013-01-09 07:05:00,42.5,35.0,29.86,SSE,158,4.0,9.0,75,0.00,,,0.00,weatherlink.com 1.10,2013-01-09 14:05:00,
2013-01-09 07:20:00,40.8,35.0,29.85,WNW,292,3.0,4.0,80,0.01,,,0.01,weatherlink.com 1.10,2013-01-09 14:20:00,
2013-01-09 07:35:00,39.0,36.0,29.85,North,9,3.0,8.0,87,0.02,,,0.02,weatherlink.com 1.10,2013-01-09 14:35:00,
2013-01-09 07:50:00,38.6,36.0,29.84,North,5,2.0,5.0,89,0.02,,,0.02,weatherlink.com 1.10,2013-01-09 14:50:00,
2013-01-09 08:05:00,38.2,36.0,29.84,NNW,345,3.0,5.0,90,0.03,,,0.03,weatherlink.com 1.10,2013-01-09 15:05:00,
2013-01-09 08:21:00,39.1,36.0,29.84,WNW,302,6.0,9.0,89,0.02,,,0.03,weatherlink.com 1.10,2013-01-09 15:21:00,
2013-01-09 08:35:00,39.1,37.0,29.83,NNW,336,1.0,8.0,90,0.01,,,0.03,weatherlink.com 1.10,2013-01-09 15:35:00,
2013-01-09 08:51:00,38.7,36.0,29.82,NE,44,6.0,7.0,90,0.01,,,0.03,weatherlink.com 1.10,2013-01-09 15:51:00,
2013-01-09 09:06:00,38.2,36.0,29.81,NE,42,3.0,6.0,91,0.00,,,0.03,weatherlink.com 1.10,2013-01-09 16:06:00,
2013-01-09 09:21:00,38.1,36.0,29.79,NW,323,0.0,4.0,92,0.00,,,0.03,weatherlink.com 1.10,2013-01-09 16:21:00,
2013-01-09 09:36:00,38.0,36.0,29.79,NNE,15,0.0,2.0,92,0.00,,,0.03,weatherlink.com 1.10,2013-01-09 16:36:00,
2013-01-09 09:51:00,37.7,36.0,29.78,NE,39,0.0,2.0,93,0.00,,,0.03,weatherlink.com 1.10,2013-01-09 16:51:00,
2013-01-09 10:06:00,37.7,36.0,29.77,ENE,69,0.0,3.0,93,0.00,,,0.03,weatherlink.com 1.10,2013-01-09 17:06:00,
2013-01-09 10:21:00,37.6,36.0,29.77,ENE,69,0.0,1.0,93,0.00,,,0.03,weatherlink.com 1.10,2013-01-09 17:21:00,
2013-01-09 10:36:00,37.6,36.0,29.76,ENE,69,0.0,2.0,94,0.00,,,0.03,weatherlink.com 1.10,2013-01-09 17:36:00,
2013-01-09 10:51:00,37.7,36.0,29.75,ENE,69,0.0,0.0,94,0.00,,,0.03,weatherlink.com 1.10,2013-01-09 17:51:00,
2013-01-09 11:06:00,37.7,36.0,29.75,ENE,69,0.0,0.0,94,0.00,,,0.03,weatherlink.com 1.10,2013-01-09 18:06:00,
2013-01-09 11:21:00,37.8,36.0,29.73,ENE,69,0.0,0.0,94,0.00,,,0.03,weatherlink.com 1.10,2013-01-09 18:21:00,
2013-01-09 11:36:00,38.1,36.0,29.73,ENE,69,0.0,0.0,93,0.00,,,0.03,weatherlink.com 1.10,2013-01-09 18:36:00,
2013-01-09 11:51:00,38.4,36.0,29.72,West,279,0.0,0.0,92,0.00,,,0.03,weatherlink.com 1.10,2013-01-09 18:51:00,
2013-01-09 12:06:00,38.5,37.0,29.70,West,279,0.0,0.0,93,0.00,,,0.03,weatherlink.com 1.10,2013-01-09 19:06:00,
2013-01-09 12:21:00,38.6,37.0,29.69,West,277,0.0,0.0,92,0.00,,,0.03,weatherlink.com 1.10,2013-01-09 19:21:00,
2013-01-09 12:36:00,38.6,37.0,29.69,West,277,0.0,0.0,92,0.00,,,0.03,weatherlink.com 1.10,2013-01-09 19:36:00,
2013-01-09 12:51:00,38.5,36.0,29.68,SE,139,0.0,0.0,92,0.00,,,0.03,weatherlink.com 1.10,2013-01-09 19:51:00,
2013-01-09 13:06:00,38.4,36.0,29.67,SE,138,0.0,0.0,92,0.00,,,0.03,weatherlink.com 1.10,2013-01-09 20:06:00,
2013-01-09 13:21:00,38.3,36.0,29.66,South,186,2.0,2.0,92,0.00,,,0.03,weatherlink.com 1.10,2013-01-09 20:21:00,
2013-01-09 13:36:00,38.4,37.0,29.66,SSW,192,0.0,2.0,93,0.00,,,0.03,weatherlink.com 1.10,2013-01-09 20:36:00,
2013-01-09 13:51:00,39.0,37.0,29.65,South,190,0.0,4.0,92,0.01,,,0.04,weatherlink.com 1.10,2013-01-09 20:51:00,
2013-01-09 14:06:00,39.3,37.0,29.65,WSW,240,0.0,2.0,92,0.01,,,0.04,weatherlink.com 1.10,2013-01-09 21:06:00,
2013-01-09 14:21:00,42.6,37.0,29.64,South,178,8.0,13.0,80,0.01,,,0.04,weatherlink.com 1.10,2013-01-09 21:21:00,
2013-01-09 14:36:00,41.9,38.0,29.63,WSW,238,0.0,9.0,85,0.01,,,0.04,weatherlink.com 1.10,2013-01-09 21:36:00,
2013-01-09 14:51:00,40.0,37.0,29.63,WNW,296,0.0,7.0,90,0.01,,,0.05,weatherlink.com 1.10,2013-01-09 21:51:00,
2013-01-09 15:06:00,38.9,37.0,29.63,NNW,343,1.0,3.0,92,0.01,,,0.05,weatherlink.com 1.10,2013-01-09 22:06:00,
2013-01-09 15:21:00,38.8,37.0,29.63,NNE,19,1.0,3.0,92,0.01,,,0.05,weatherlink.com 1.10,2013-01-09 22:21:00,
2013-01-09 15:36:00,38.8,37.0,29.63,North,351,3.0,4.0,92,0.02,,,0.06,weatherlink.com 1.10,2013-01-09 22:36:00,
2013-01-09 15:51:00,37.9,36.0,29.63,NW,326,3.0,5.0,93,0.01,,,0.06,weatherlink.com 1.10,2013-01-09 22:51:00,
2013-01-09 16:06:00,37.5,36.0,29.62,NW,319,3.0,5.0,94,0.02,,,0.07,weatherlink.com 1.10,2013-01-09 23:06:00,
2013-01-09 16:21:00,37.5,36.0,29.63,NW,307,2.0,5.0,94,0.03,,,0.08,weatherlink.com 1.10,2013-01-09 23:21:00,
2013-01-09 16:36:00,37.8,36.0,29.62,WNW,300,7.0,13.0,93,0.03,,,0.09,weatherlink.com 1.10,2013-01-09 23:36:00,
2013-01-09 16:52:00,37.7,36.0,29.62,NNW,328,4.0,5.0,93,0.04,,,0.10,weatherlink.com 1.10,2013-01-09 23:52:00,
2013-01-09 17:07:00,37.3,36.0,29.61,WNW,303,0.0,2.0,94,0.05,,,0.12,weatherlink.com 1.10,2013-01-10 00:07:00,
2013-01-09 17:22:00,37.1,36.0,29.60,NNW,338,4.0,6.0,94,0.04,,,0.12,weatherlink.com 1.10,2013-01-10 00:22:00,
2013-01-09 17:37:00,36.6,35.0,29.60,NNW,340,6.0,9.0,95,0.04,,,0.13,weatherlink.com 1.10,2013-01-10 00:37:00,
2013-01-09 17:52:00,36.4,35.0,29.60,NW,304,0.0,5.0,95,0.03,,,0.13,weatherlink.com 1.10,2013-01-10 00:52:00,
2013-01-09 18:07:00,36.4,35.0,29.61,NNW,342,3.0,6.0,95,0.02,,,0.14,weatherlink.com 1.10,2013-01-10 01:07:00,
2013-01-09 18:22:00,36.4,35.0,29.61,North,355,3.0,6.0,95,0.02,,,0.14,weatherlink.com 1.10,2013-01-10 01:22:00,
2013-01-09 18:37:00,36.5,35.0,29.61,North,5,3.0,6.0,95,0.01,,,0.14,weatherlink.com 1.10,2013-01-10 01:37:00,
2013-01-09 18:52:00,36.7,35.0,29.61,North,10,3.0,7.0,95,0.01,,,0.14,weatherlink.com 1.10,2013-01-10 01:52:00,
2013-01-09 19:07:00,36.4,35.0,29.59,SW,235,2.0,3.0,94,0.00,,,0.14,weatherlink.com 1.10,2013-01-10 02:07:00,
2013-01-09 19:22:00,35.7,34.0,29.58,SW,236,0.0,2.0,95,0.00,,,0.14,weatherlink.com 1.10,2013-01-10 02:22:00,
2013-01-09 19:37:00,35.6,35.0,29.59,SE,142,2.0,3.0,96,0.00,,,0.14,weatherlink.com 1.10,2013-01-10 02:37:00,
2013-01-09 19:52:00,35.6,35.0,29.58,ESE,119,1.0,1.0,96,0.01,,,0.15,weatherlink.com 1.10,2013-01-10 02:52:00,
2013-01-09 20:07:00,35.3,34.0,29.57,NE,42,0.0,0.0,95,0.01,,,0.15,weatherlink.com 1.10,2013-01-10 03:07:00,
2013-01-09 20:22:00,35.1,34.0,29.57,ESE,103,1.0,3.0,96,0.01,,,0.15,weatherlink.com 1.10,2013-01-10 03:22:00,
2013-01-09 20:37:00,35.1,34.0,29.57,SE,134,1.0,3.0,96,0.01,,,0.15,weatherlink.com 1.10,2013-01-10 03:37:00,
2013-01-09 20:52:00,35.2,34.0,29.57,SE,138,0.0,1.0,96,0.00,,,0.15,weatherlink.com 1.10,2013-01-10 03:52:00,
2013-01-09 21:07:00,35.2,34.0,29.56,WNW,303,0.0,0.0,96,0.00,,,0.15,weatherlink.com 1.10,2013-01-10 04:07:00,
2013-01-09 21:22:00,34.9,34.0,29.56,NNW,331,2.0,4.0,96,0.00,,,0.15,weatherlink.com 1.10,2013-01-10 04:22:00,
2013-01-09 21:37:00,35.0,34.0,29.56,NNW,333,2.0,4.0,96,0.00,,,0.15,weatherlink.com 1.10,2013-01-10 04:37:00,
2013-01-09 21:52:00,35.7,35.0,29.58,NNE,23,4.0,7.0,97,0.00,,,0.15,weatherlink.com 1.10,2013-01-10 04:52:00,
2013-01-09 22:07:00,37.7,34.0,29.57,NNE,31,4.0,16.0,87,0.01,,,0.16,weatherlink.com 1.10,2013-01-10 05:07:00,
2013-01-09 22:22:00,37.9,33.0,29.58,North,11,9.0,19.0,82,0.01,,,0.16,weatherlink.com 1.10,2013-01-10 05:22:00,
2013-01-09 22:45:00,37.2,33.0,29.58,North,355,8.0,20.0,84,0.02,,,0.17,weatherlink.com 1.10,2013-01-10 05:45:00,
2013-01-09 22:53:00,37.3,32.0,29.58,North,350,12.0,19.0,81,0.02,,,0.17,weatherlink.com 1.10,2013-01-10 05:53:00,
2013-01-09 23:08:00,37.6,33.0,29.58,NNE,18,13.0,29.0,82,0.01,,,0.17,weatherlink.com 1.10,2013-01-10 06:08:00,
2013-01-09 23:23:00,36.6,33.0,29.58,NNE,17,18.0,22.0,87,0.01,,,0.17,weatherlink.com 1.10,2013-01-10 06:23:00,
2013-01-09 23:38:00,35.9,33.0,29.58,North,5,15.0,19.0,89,0.00,,,0.17,weatherlink.com 1.10,2013-01-10 06:38:00,
2013-01-09 23:53:00,35.2,32.0,29.58,North,5,16.0,22.0,89,0.00,,,0.17,weatherlink.com 1.10,2013-01-10 06:53:00,